sensor_id;sensor_type;location;lat;lon;timestamp;pressure;altitude;pressure_sealevel;temperature;humidity
10712;BME280;5407;51.234;6.804;2024-03-02T00:00:14;99533.53;;;10.46;69.53
10712;BME280;5407;51.234;6.804;2024-03-02T00:02:42;99523.91;;;10.48;69.60
10712;BME280;5407;51.234;6.804;2024-03-02T00:05:12;99526.81;;;10.66;68.77
10712;BME280;5407;51.234;6.804;2024-03-02T00:07:41;99533.44;;;10.72;68.96
10712;BME280;5407;51.234;6.804;2024-03-02T00:10:10;99521.09;;;10.71;68.98
10712;BME280;5407;51.234;6.804;2024-03-02T00:12:37;99513.69;;;10.64;68.94
10712;BME280;5407;51.234;6.804;2024-03-02T00:15:21;99511.72;;;10.61;69.24
10712;BME280;5407;51.234;6.804;2024-03-02T00:17:54;99510.16;;;10.57;69.27
10712;BME280;5407;51.234;6.804;2024-03-02T00:20:23;99510.97;;;10.64;69.02
10712;BME280;5407;51.234;6.804;2024-03-02T00:22:53;99508.28;;;10.64;69.06
10712;BME280;5407;51.234;6.804;2024-03-02T00:25:23;99502.06;;;10.57;69.43
10712;BME280;5407;51.234;6.804;2024-03-02T00:27:50;99505.09;;;10.52;69.75
10712;BME280;5407;51.234;6.804;2024-03-02T00:30:56;99500.50;;;10.56;69.91
10712;BME280;5407;51.234;6.804;2024-03-02T00:33:25;99496.81;;;10.71;69.23
10712;BME280;5407;51.234;6.804;2024-03-02T00:35:54;99487.06;;;10.59;69.65
10712;BME280;5407;51.234;6.804;2024-03-02T00:38:22;99496.34;;;10.62;69.57
10712;BME280;5407;51.234;6.804;2024-03-02T00:40:49;99493.16;;;10.53;69.67
10712;BME280;5407;51.234;6.804;2024-03-02T00:46:16;99504.50;;;10.69;69.47
10712;BME280;5407;51.234;6.804;2024-03-02T00:48:54;99496.41;;;10.69;69.03
10712;BME280;5407;51.234;6.804;2024-03-02T00:51:24;99503.69;;;10.65;69.19
10712;BME280;5407;51.234;6.804;2024-03-02T00:53:51;99503.63;;;10.58;69.61
10712;BME280;5407;51.234;6.804;2024-03-02T00:56:20;99503.56;;;10.54;69.41
10712;BME280;5407;51.234;6.804;2024-03-02T00:58:48;99508.59;;;10.56;69.65
10712;BME280;5407;51.234;6.804;2024-03-02T01:01:15;99513.25;;;10.59;69.14
10712;BME280;5407;51.234;6.804;2024-03-02T01:03:42;99521.69;;;10.54;69.41
10712;BME280;5407;51.234;6.804;2024-03-02T01:06:08;99513.31;;;10.66;69.09
10712;BME280;5407;51.234;6.804;2024-03-02T01:08:37;99518.13;;;10.83;68.64
10712;BME280;5407;51.234;6.804;2024-03-02T01:11:04;99522.69;;;10.79;68.70
10712;BME280;5407;51.234;6.804;2024-03-02T01:13:31;99522.97;;;10.67;68.78
10712;BME280;5407;51.234;6.804;2024-03-02T01:15:58;99517.97;;;10.69;68.77
10712;BME280;5407;51.234;6.804;2024-03-02T01:18:25;99524.94;;;10.70;68.78
10712;BME280;5407;51.234;6.804;2024-03-02T01:20:52;99516.44;;;10.68;68.68
10712;BME280;5407;51.234;6.804;2024-03-02T01:23:34;99513.72;;;10.68;68.79
10712;BME280;5407;51.234;6.804;2024-03-02T01:26:01;99516.34;;;10.61;69.06
10712;BME280;5407;51.234;6.804;2024-03-02T01:28:28;99522.50;;;10.61;68.94
10712;BME280;5407;51.234;6.804;2024-03-02T01:30:55;99514.81;;;10.60;68.68
10712;BME280;5407;51.234;6.804;2024-03-02T01:33:22;99517.56;;;10.67;68.89
10712;BME280;5407;51.234;6.804;2024-03-02T01:35:49;99513.31;;;10.66;68.65
10712;BME280;5407;51.234;6.804;2024-03-02T01:38:16;99504.03;;;10.63;68.77
10712;BME280;5407;51.234;6.804;2024-03-02T01:40:44;99503.34;;;10.70;68.75
10712;BME280;5407;51.234;6.804;2024-03-02T01:43:11;99505.66;;;10.68;68.43
10712;BME280;5407;51.234;6.804;2024-03-02T01:45:38;99497.47;;;10.61;68.57
10712;BME280;5407;51.234;6.804;2024-03-02T01:48:06;99497.59;;;10.71;68.23
10712;BME280;5407;51.234;6.804;2024-03-02T01:50:33;99497.16;;;10.66;68.22
10712;BME280;5407;51.234;6.804;2024-03-02T01:53:00;99494.72;;;10.57;68.32
10712;BME280;5407;51.234;6.804;2024-03-02T01:55:28;99493.38;;;10.74;68.16
10712;BME280;5407;51.234;6.804;2024-03-02T01:57:57;99497.16;;;10.66;68.08
10712;BME280;5407;51.234;6.804;2024-03-02T02:00:24;99494.16;;;10.74;67.61
10712;BME280;5407;51.234;6.804;2024-03-02T02:02:51;99497.59;;;10.71;67.46
10712;BME280;5407;51.234;6.804;2024-03-02T02:05:18;99493.41;;;10.77;67.30
10712;BME280;5407;51.234;6.804;2024-03-02T02:07:45;99497.88;;;10.63;67.51
10712;BME280;5407;51.234;6.804;2024-03-02T02:10:12;99496.47;;;10.72;66.88
10712;BME280;5407;51.234;6.804;2024-03-02T02:12:39;99497.34;;;10.83;67.00
10712;BME280;5407;51.234;6.804;2024-03-02T02:17:59;99491.88;;;10.80;66.74
10712;BME280;5407;51.234;6.804;2024-03-02T02:20:26;99490.84;;;10.91;66.51
10712;BME280;5407;51.234;6.804;2024-03-02T02:22:56;99492.41;;;10.92;66.39
10712;BME280;5407;51.234;6.804;2024-03-02T02:25:23;99492.69;;;10.84;66.47
10712;BME280;5407;51.234;6.804;2024-03-02T02:27:50;99495.06;;;10.89;66.73
10712;BME280;5407;51.234;6.804;2024-03-02T02:30:19;99495.16;;;10.96;66.31
10712;BME280;5407;51.234;6.804;2024-03-02T02:32:46;99503.13;;;10.85;66.30
10712;BME280;5407;51.234;6.804;2024-03-02T02:35:13;99497.91;;;11.03;65.97
10712;BME280;5407;51.234;6.804;2024-03-02T02:37:40;99502.03;;;10.93;66.22
10712;BME280;5407;51.234;6.804;2024-03-02T02:40:10;99505.03;;;10.85;66.37
10712;BME280;5407;51.234;6.804;2024-03-02T02:42:37;99496.69;;;10.97;65.71
10712;BME280;5407;51.234;6.804;2024-03-02T02:45:04;99500.59;;;11.03;65.55
10712;BME280;5407;51.234;6.804;2024-03-02T02:47:31;99489.41;;;11.01;65.43
10712;BME280;5407;51.234;6.804;2024-03-02T02:50:00;99488.19;;;10.95;65.93
10712;BME280;5407;51.234;6.804;2024-03-02T02:52:31;99486.72;;;11.01;65.78
10712;BME280;5407;51.234;6.804;2024-03-02T02:55:02;99480.97;;;11.06;65.51
10712;BME280;5407;51.234;6.804;2024-03-02T02:57:31;99488.97;;;10.95;65.93
10712;BME280;5407;51.234;6.804;2024-03-02T03:00:01;99488.94;;;10.92;65.67
10712;BME280;5407;51.234;6.804;2024-03-02T03:02:36;99481.09;;;10.80;66.46
10712;BME280;5407;51.234;6.804;2024-03-02T03:05:04;99471.91;;;10.84;65.99
10712;BME280;5407;51.234;6.804;2024-03-02T03:07:32;99479.69;;;10.93;66.00
10712;BME280;5407;51.234;6.804;2024-03-02T03:09:59;99485.69;;;10.76;66.88
10712;BME280;5407;51.234;6.804;2024-03-02T03:12:26;99481.38;;;10.68;67.13
10712;BME280;5407;51.234;6.804;2024-03-02T03:14:54;99492.50;;;10.63;67.51
10712;BME280;5407;51.234;6.804;2024-03-02T03:17:21;99486.91;;;10.82;66.71
10712;BME280;5407;51.234;6.804;2024-03-02T03:19:48;99495.00;;;10.82;66.33
10712;BME280;5407;51.234;6.804;2024-03-02T03:22:15;99502.44;;;10.92;66.32
10712;BME280;5407;51.234;6.804;2024-03-02T03:24:42;99500.94;;;10.98;65.91
10712;BME280;5407;51.234;6.804;2024-03-02T03:27:09;99499.78;;;10.99;66.43
10712;BME280;5407;51.234;6.804;2024-03-02T03:29:36;99499.97;;;10.80;66.67
10712;BME280;5407;51.234;6.804;2024-03-02T03:32:05;99497.41;;;10.90;66.57
10712;BME280;5407;51.234;6.804;2024-03-02T03:34:33;99505.16;;;10.95;66.41
10712;BME280;5407;51.234;6.804;2024-03-02T03:37:00;99510.47;;;10.88;66.14
10712;BME280;5407;51.234;6.804;2024-03-02T03:39:27;99502.75;;;10.87;66.58
10712;BME280;5407;51.234;6.804;2024-03-02T03:41:54;99509.78;;;10.95;66.27
10712;BME280;5407;51.234;6.804;2024-03-02T03:44:21;99506.53;;;10.79;66.85
10712;BME280;5407;51.234;6.804;2024-03-02T03:46:48;99511.25;;;10.89;66.71
10712;BME280;5407;51.234;6.804;2024-03-02T03:49:16;99510.19;;;10.97;66.60
10712;BME280;5407;51.234;6.804;2024-03-02T03:51:43;99504.44;;;11.02;65.99
10712;BME280;5407;51.234;6.804;2024-03-02T03:54:10;99497.34;;;10.83;66.74
10712;BME280;5407;51.234;6.804;2024-03-02T03:56:37;99507.31;;;10.83;66.51
10712;BME280;5407;51.234;6.804;2024-03-02T03:59:04;99499.63;;;10.81;66.75
10712;BME280;5407;51.234;6.804;2024-03-02T04:01:31;99488.91;;;10.88;66.63
10712;BME280;5407;51.234;6.804;2024-03-02T04:03:59;99509.19;;;10.75;67.11
10712;BME280;5407;51.234;6.804;2024-03-02T04:06:28;99518.09;;;10.79;67.14
10712;BME280;5407;51.234;6.804;2024-03-02T04:08:55;99514.81;;;10.63;67.62
10712;BME280;5407;51.234;6.804;2024-03-02T04:11:22;99520.41;;;10.77;67.62
10712;BME280;5407;51.234;6.804;2024-03-02T04:13:49;99523.03;;;10.74;67.64
10712;BME280;5407;51.234;6.804;2024-03-02T04:16:16;99519.59;;;10.77;67.66
10712;BME280;5407;51.234;6.804;2024-03-02T04:18:42;99521.13;;;10.74;67.85
10712;BME280;5407;51.234;6.804;2024-03-02T04:21:09;99510.41;;;10.81;67.47
10712;BME280;5407;51.234;6.804;2024-03-02T04:23:38;99508.69;;;10.63;67.91
10712;BME280;5407;51.234;6.804;2024-03-02T04:26:05;99513.31;;;10.66;68.00
10712;BME280;5407;51.234;6.804;2024-03-02T04:28:31;99508.69;;;10.63;68.22
10712;BME280;5407;51.234;6.804;2024-03-02T04:30:58;99512.47;;;10.58;68.37
10712;BME280;5407;51.234;6.804;2024-03-02T04:33:25;99513.72;;;10.68;68.48
10712;BME280;5407;51.234;6.804;2024-03-02T04:35:52;99514.81;;;10.60;68.50
10712;BME280;5407;51.234;6.804;2024-03-02T04:38:19;99523.22;;;10.55;68.71
10712;BME280;5407;51.234;6.804;2024-03-02T04:40:47;99527.88;;;10.58;68.66
10712;BME280;5407;51.234;6.804;2024-03-02T04:43:14;99528.63;;;10.55;68.77
10712;BME280;5407;51.234;6.804;2024-03-02T04:45:42;99530.84;;;10.49;68.90
10712;BME280;5407;51.234;6.804;2024-03-02T04:48:09;99527.88;;;10.58;68.66
10712;BME280;5407;51.234;6.804;2024-03-02T04:50:36;99516.22;;;10.47;68.90
10712;BME280;5407;51.234;6.804;2024-03-02T04:53:03;99519.31;;;10.49;68.97
10712;BME280;5407;51.234;6.804;2024-03-02T04:55:29;99522.41;;;10.51;69.18
10712;BME280;5407;51.234;6.804;2024-03-02T04:58:19;99516.09;;;10.40;69.66
10712;BME280;5407;51.234;6.804;2024-03-02T05:00:46;99516.00;;;10.29;69.67
10712;BME280;5407;51.234;6.804;2024-03-02T05:03:13;99521.41;;;10.33;69.88
10712;BME280;5407;51.234;6.804;2024-03-02T05:05:40;99522.22;;;10.37;69.69
10712;BME280;5407;51.234;6.804;2024-03-02T05:08:06;99521.81;;;10.35;69.75
10712;BME280;5407;51.234;6.804;2024-03-02T05:10:33;99516.69;;;10.23;70.20
10712;BME280;5407;51.234;6.804;2024-03-02T05:13:02;99520.50;;;10.22;70.48
10712;BME280;5407;51.234;6.804;2024-03-02T05:15:30;99520.16;;;10.23;70.53
10712;BME280;5407;51.234;6.804;2024-03-02T05:17:57;99521.41;;;10.33;70.52
10712;BME280;5407;51.234;6.804;2024-03-02T05:20:25;99522.97;;;10.34;70.22
10712;BME280;5407;51.234;6.804;2024-03-02T05:22:51;99523.38;;;10.36;69.96
10712;BME280;5407;51.234;6.804;2024-03-02T05:25:19;99527.13;;;10.28;70.53
10712;BME280;5407;51.234;6.804;2024-03-02T05:27:46;99532.78;;;10.19;70.71
10712;BME280;5407;51.234;6.804;2024-03-02T05:30:13;99527.38;;;10.16;70.61
10712;BME280;5407;51.234;6.804;2024-03-02T05:32:41;99538.97;;;10.20;70.65
10712;BME280;5407;51.234;6.804;2024-03-02T05:35:08;99538.81;;;10.10;70.71
10712;BME280;5407;51.234;6.804;2024-03-02T05:37:36;99543.44;;;10.09;71.13
10712;BME280;5407;51.234;6.804;2024-03-02T05:40:05;99539.38;;;10.22;70.87
10712;BME280;5407;51.234;6.804;2024-03-02T05:42:33;99532.03;;;10.19;71.06
10712;BME280;5407;51.234;6.804;2024-03-02T05:44:59;99543.53;;;10.16;70.88
10712;BME280;5407;51.234;6.804;2024-03-02T05:47:26;99522.31;;;10.14;71.26
10712;BME280;5407;51.234;6.804;2024-03-02T05:49:55;99530.53;;;10.21;71.06
10712;BME280;5407;51.234;6.804;2024-03-02T05:52:21;99526.16;;;10.13;71.06
10712;BME280;5407;51.234;6.804;2024-03-02T05:54:48;99541.97;;;10.15;71.42
10712;BME280;5407;51.234;6.804;2024-03-02T05:57:15;99543.88;;;10.14;70.92
10712;BME280;5407;51.234;6.804;2024-03-02T05:59:59;99543.94;;;9.92;71.39
10712;BME280;5407;51.234;6.804;2024-03-02T06:02:26;99545.50;;;10.19;71.23
10712;BME280;5407;51.234;6.804;2024-03-02T06:04:55;99557.28;;;10.08;70.84
10712;BME280;5407;51.234;6.804;2024-03-02T06:07:22;99553.00;;;10.03;70.92
10712;BME280;5407;51.234;6.804;2024-03-02T06:09:49;99556.25;;;9.93;71.33
10712;BME280;5407;51.234;6.804;2024-03-02T06:12:18;99566.09;;;9.82;72.15
10712;BME280;5407;51.234;6.804;2024-03-02T06:14:45;99567.75;;;9.90;71.96
10712;BME280;5407;51.234;6.804;2024-03-02T06:17:12;99559.34;;;9.92;71.35
10712;BME280;5407;51.234;6.804;2024-03-02T06:19:39;99557.97;;;10.01;71.21
10712;BME280;5407;51.234;6.804;2024-03-02T06:22:07;99565.53;;;9.96;71.42
10712;BME280;5407;51.234;6.804;2024-03-02T06:24:36;99568.75;;;10.01;71.49
10712;BME280;5407;51.234;6.804;2024-03-02T06:27:03;99578.78;;;10.04;71.49
10712;BME280;5407;51.234;6.804;2024-03-02T06:29:32;99585.72;;;10.05;70.96
10712;BME280;5407;51.234;6.804;2024-03-02T06:31:59;99581.72;;;9.96;71.40
10712;BME280;5407;51.234;6.804;2024-03-02T06:34:26;99578.78;;;10.04;71.21
10712;BME280;5407;51.234;6.804;2024-03-02T06:36:53;99584.28;;;10.11;71.18
10712;BME280;5407;51.234;6.804;2024-03-02T06:39:21;99584.41;;;9.96;71.41
10712;BME280;5407;51.234;6.804;2024-03-02T06:41:47;99598.22;;;9.94;71.37
10712;BME280;5407;51.234;6.804;2024-03-02T06:44:14;99591.56;;;9.85;71.96
10712;BME280;5407;51.234;6.804;2024-03-02T06:46:41;99596.38;;;9.98;71.87
10712;BME280;5407;51.234;6.804;2024-03-02T06:49:08;99599.00;;;9.95;71.75
10712;BME280;5407;51.234;6.804;2024-03-02T06:51:36;99603.81;;;10.05;71.97
10712;BME280;5407;51.234;6.804;2024-03-02T06:54:03;99588.97;;;10.17;71.68
10712;BME280;5407;51.234;6.804;2024-03-02T06:56:31;99592.53;;;10.25;70.80
10712;BME280;5407;51.234;6.804;2024-03-02T06:58:58;99598.34;;;10.27;71.17
10712;BME280;5407;51.234;6.804;2024-03-02T07:01:25;99606.59;;;10.37;70.75
10712;BME280;5407;51.234;6.804;2024-03-02T07:03:53;99602.78;;;10.42;70.36
10712;BME280;5407;51.234;6.804;2024-03-02T07:06:20;99604.56;;;10.31;70.67
10712;BME280;5407;51.234;6.804;2024-03-02T07:08:47;99606.63;;;10.41;70.41
10712;BME280;5407;51.234;6.804;2024-03-02T07:11:14;99608.38;;;10.26;70.66
10712;BME280;5407;51.234;6.804;2024-03-02T07:13:42;99606.19;;;10.39;70.25
10712;BME280;5407;51.234;6.804;2024-03-02T07:16:09;99616.13;;;10.31;70.63
10712;BME280;5407;51.234;6.804;2024-03-02T07:18:55;99617.47;;;10.18;70.43
10712;BME280;5407;51.234;6.804;2024-03-02T07:21:23;99627.50;;;10.18;70.38
10712;BME280;5407;51.234;6.804;2024-03-02T07:23:50;99632.06;;;10.14;70.64
10712;BME280;5407;51.234;6.804;2024-03-02T07:26:17;99632.34;;;10.35;70.12
10712;BME280;5407;51.234;6.804;2024-03-02T07:28:46;99640.34;;;10.57;69.48
10712;BME280;5407;51.234;6.804;2024-03-02T07:31:14;99635.00;;;10.61;69.15
10712;BME280;5407;51.234;6.804;2024-03-02T07:33:40;99629.84;;;10.78;67.92
10712;BME280;5407;51.234;6.804;2024-03-02T07:36:08;99631.41;;;10.83;68.23
10712;BME280;5407;51.234;6.804;2024-03-02T07:38:35;99636.81;;;10.83;68.07
10712;BME280;5407;51.234;6.804;2024-03-02T07:41:02;99629.13;;;10.85;67.71
10712;BME280;5407;51.234;6.804;2024-03-02T07:43:30;99627.63;;;10.87;67.84
10712;BME280;5407;51.234;6.804;2024-03-02T07:46:00;99619.88;;;10.86;67.63
10712;BME280;5407;51.234;6.804;2024-03-02T07:48:26;99620.09;;;11.03;67.38
10712;BME280;5407;51.234;6.804;2024-03-02T07:50:53;99631.81;;;10.85;67.92
10712;BME280;5407;51.234;6.804;2024-03-02T07:53:20;99635.06;;;10.97;67.46
10712;BME280;5407;51.234;6.804;2024-03-02T07:55:47;99645.59;;;11.09;67.42
10712;BME280;5407;51.234;6.804;2024-03-02T07:58:14;99656.38;;;11.06;66.92
10712;BME280;5407;51.234;6.804;2024-03-02T08:00:41;99654.41;;;11.03;67.21
10712;BME280;5407;51.234;6.804;2024-03-02T08:03:09;99672.06;;;11.30;66.07
10712;BME280;5407;51.234;6.804;2024-03-02T08:05:37;99670.75;;;11.17;66.85
10712;BME280;5407;51.234;6.804;2024-03-02T08:08:04;99668.44;;;11.52;65.40
10712;BME280;5407;51.234;6.804;2024-03-02T08:10:31;99673.84;;;11.52;65.37
10712;BME280;5407;51.234;6.804;2024-03-02T08:12:59;99675.94;;;11.32;65.83
10712;BME280;5407;51.234;6.804;2024-03-02T08:15:26;99674.81;;;11.69;64.90
10712;BME280;5407;51.234;6.804;2024-03-02T08:17:53;99678.25;;;12.10;64.13
10712;BME280;5407;51.234;6.804;2024-03-02T08:20:21;99679.38;;;12.05;63.03
10712;BME280;5407;51.234;6.804;2024-03-02T08:22:48;99678.09;;;11.92;63.86
10712;BME280;5407;51.234;6.804;2024-03-02T08:25:16;99671.25;;;12.05;63.63
10712;BME280;5407;51.234;6.804;2024-03-02T08:27:43;99673.59;;;12.07;63.30
10712;BME280;5407;51.234;6.804;2024-03-02T08:30:11;99679.88;;;12.21;62.64
10712;BME280;5407;51.234;6.804;2024-03-02T08:32:38;99677.16;;;12.18;62.67
10712;BME280;5407;51.234;6.804;2024-03-02T08:35:06;99682.16;;;12.19;63.27
10712;BME280;5407;51.234;6.804;2024-03-02T08:37:37;99682.13;;;12.12;63.01
10712;BME280;5407;51.234;6.804;2024-03-02T08:40:07;99679.81;;;12.14;63.38
10712;BME280;5407;51.234;6.804;2024-03-02T08:42:34;99680.22;;;12.16;62.71
10712;BME280;5407;51.234;6.804;2024-03-02T08:45:01;99670.41;;;11.94;64.06
10712;BME280;5407;51.234;6.804;2024-03-02T08:47:28;99667.31;;;11.92;63.94
10712;BME280;5407;51.234;6.804;2024-03-02T08:49:55;99656.00;;;11.80;64.65
10712;BME280;5407;51.234;6.804;2024-03-02T08:52:22;99656.84;;;11.91;64.60
10712;BME280;5407;51.234;6.804;2024-03-02T08:54:50;99664.16;;;11.87;64.24
10712;BME280;5407;51.234;6.804;2024-03-02T08:57:17;99668.66;;;11.72;65.13
10712;BME280;5407;51.234;6.804;2024-03-02T08:59:44;99669.53;;;11.83;64.42
10712;BME280;5407;51.234;6.804;2024-03-02T09:02:11;99678.56;;;12.05;64.10
10712;BME280;5407;51.234;6.804;2024-03-02T09:04:39;99677.81;;;12.04;63.90
10712;BME280;5407;51.234;6.804;2024-03-02T09:07:06;99673.81;;;12.38;63.45
10712;BME280;5407;51.234;6.804;2024-03-02T09:09:33;99679.19;;;12.31;62.77
10712;BME280;5407;51.234;6.804;2024-03-02T09:12:01;99676.25;;;12.57;61.83
10712;BME280;5407;51.234;6.804;2024-03-02T09:14:28;99682.47;;;12.65;62.04
10712;BME280;5407;51.234;6.804;2024-03-02T09:16:55;99676.69;;;12.66;61.88
10712;BME280;5407;51.234;6.804;2024-03-02T09:19:22;99690.56;;;12.58;61.45
10712;BME280;5407;51.234;6.804;2024-03-02T09:21:52;99680.16;;;12.70;61.31
10712;BME280;5407;51.234;6.804;2024-03-02T09:24:21;99684.50;;;12.78;60.92
10712;BME280;5407;51.234;6.804;2024-03-02T09:26:48;99682.69;;;13.03;59.88
10712;BME280;5407;51.234;6.804;2024-03-02T09:29:16;99680.41;;;13.09;59.37
10712;BME280;5407;51.234;6.804;2024-03-02T09:31:43;99692.38;;;13.08;59.47
10712;BME280;5407;51.234;6.804;2024-03-02T09:34:10;99678.09;;;13.21;59.56
10712;BME280;5407;51.234;6.804;2024-03-02T09:36:37;99680.47;;;13.26;58.81
10712;BME280;5407;51.234;6.804;2024-03-02T09:39:03;99687.44;;;13.34;58.37
10712;BME280;5407;51.234;6.804;2024-03-02T09:41:30;99678.50;;;13.19;58.45
10712;BME280;5407;51.234;6.804;2024-03-02T09:43:59;99675.44;;;13.31;57.60
10712;BME280;5407;51.234;6.804;2024-03-02T09:46:27;99677.34;;;13.24;57.71
10712;BME280;5407;51.234;6.804;2024-03-02T09:48:55;99677.78;;;13.47;57.10
10712;BME280;5407;51.234;6.804;2024-03-02T09:51:22;99675.47;;;13.45;56.52
10712;BME280;5407;51.234;6.804;2024-03-02T09:53:50;99668.09;;;13.39;57.44
10712;BME280;5407;51.234;6.804;2024-03-02T09:56:17;99679.25;;;13.20;57.83
10712;BME280;5407;51.234;6.804;2024-03-02T09:58:44;99675.56;;;14.15;55.37
10712;BME280;5407;51.234;6.804;2024-03-02T10:01:11;99671.63;;;15.54;51.42
10712;BME280;5407;51.234;6.804;2024-03-02T10:03:40;99681.75;;;15.47;50.85
10712;BME280;5407;51.234;6.804;2024-03-02T10:06:19;99678.97;;;14.57;53.28
10712;BME280;5407;51.234;6.804;2024-03-02T10:08:46;99678.25;;;14.08;54.69
10712;BME280;5407;51.234;6.804;2024-03-02T10:11:26;99676.72;;;14.18;54.65
10712;BME280;5407;51.234;6.804;2024-03-02T10:14:04;99674.78;;;15.42;51.07
10712;BME280;5407;51.234;6.804;2024-03-02T10:16:34;99671.34;;;15.35;50.65
10712;BME280;5407;51.234;6.804;2024-03-02T10:19:17;99669.00;;;17.42;46.42
10712;BME280;5407;51.234;6.804;2024-03-02T10:21:44;99673.69;;;18.40;43.40
10712;BME280;5407;51.234;6.804;2024-03-02T10:24:11;99677.13;;;17.72;44.36
10712;BME280;5407;51.234;6.804;2024-03-02T10:26:39;99672.09;;;18.62;42.40
10712;BME280;5407;51.234;6.804;2024-03-02T10:29:07;99685.56;;;18.53;41.87
10712;BME280;5407;51.234;6.804;2024-03-02T10:31:36;99677.97;;;18.41;42.84
10712;BME280;5407;51.234;6.804;2024-03-02T10:34:03;99669.28;;;17.18;44.66
10712;BME280;5407;51.234;6.804;2024-03-02T10:36:32;99675.63;;;17.41;44.75
10712;BME280;5407;51.234;6.804;2024-03-02T10:39:02;99673.59;;;17.98;43.81
10712;BME280;5407;51.234;6.804;2024-03-02T10:41:32;99679.91;;;20.25;38.87
10712;BME280;5407;51.234;6.804;2024-03-02T10:44:02;99670.03;;;19.09;40.81
10712;BME280;5407;51.234;6.804;2024-03-02T10:46:30;99671.06;;;18.56;41.94
10712;BME280;5407;51.234;6.804;2024-03-02T10:48:57;99671.63;;;19.45;40.86
10712;BME280;5407;51.234;6.804;2024-03-02T10:51:25;99665.78;;;19.27;40.08
10712;BME280;5407;51.234;6.804;2024-03-02T10:53:54;99661.09;;;20.27;38.55
10712;BME280;5407;51.234;6.804;2024-03-02T10:56:28;99663.34;;;21.54;35.99
10712;BME280;5407;51.234;6.804;2024-03-02T10:59:01;99652.97;;;20.96;36.12
10712;BME280;5407;51.234;6.804;2024-03-02T11:01:29;99653.47;;;21.44;35.75
10712;BME280;5407;51.234;6.804;2024-03-02T11:03:56;99658.34;;;21.65;35.24
10712;BME280;5407;51.234;6.804;2024-03-02T11:06:25;99659.81;;;22.16;34.21
10712;BME280;5407;51.234;6.804;2024-03-02T11:08:55;99657.00;;;22.41;33.88
10712;BME280;5407;51.234;6.804;2024-03-02T11:11:28;99650.69;;;21.19;36.17
10712;BME280;5407;51.234;6.804;2024-03-02T11:13:57;99649.50;;;21.33;35.64
10712;BME280;5407;51.234;6.804;2024-03-02T11:16:34;99646.88;;;21.29;35.59
10712;BME280;5407;51.234;6.804;2024-03-02T11:19:03;99648.63;;;21.48;35.08
10712;BME280;5407;51.234;6.804;2024-03-02T11:21:31;99657.06;;;22.16;33.97
10712;BME280;5407;51.234;6.804;2024-03-02T11:24:00;99652.59;;;21.35;34.91
10712;BME280;5407;51.234;6.804;2024-03-02T11:26:28;99661.25;;;22.08;34.15
10712;BME280;5407;51.234;6.804;2024-03-02T11:28:55;99655.56;;;22.49;33.95
10712;BME280;5407;51.234;6.804;2024-03-02T11:31:57;99656.53;;;23.19;32.21
10712;BME280;5407;51.234;6.804;2024-03-02T11:34:29;99653.94;;;25.56;29.27
10712;BME280;5407;51.234;6.804;2024-03-02T11:36:56;99651.59;;;25.13;28.93
10712;BME280;5407;51.234;6.804;2024-03-02T11:39:26;99657.09;;;25.40;28.69
10712;BME280;5407;51.234;6.804;2024-03-02T11:41:53;99655.75;;;24.28;30.27
10712;BME280;5407;51.234;6.804;2024-03-02T11:44:21;99652.34;;;23.67;31.17
10712;BME280;5407;51.234;6.804;2024-03-02T11:46:52;99653.81;;;23.50;31.25
10712;BME280;5407;51.234;6.804;2024-03-02T11:49:36;99640.72;;;21.25;34.17
10712;BME280;5407;51.234;6.804;2024-03-02T11:52:05;99640.34;;;20.42;36.44
10712;BME280;5407;51.234;6.804;2024-03-02T11:54:33;99633.84;;;21.58;34.14
10712;BME280;5407;51.234;6.804;2024-03-02T11:57:02;99623.69;;;21.18;35.06
10712;BME280;5407;51.234;6.804;2024-03-02T11:59:29;99629.38;;;20.42;36.43
10712;BME280;5407;51.234;6.804;2024-03-02T12:01:57;99616.75;;;19.84;37.29
10712;BME280;5407;51.234;6.804;2024-03-02T12:04:25;99616.38;;;20.01;37.37
10712;BME280;5407;51.234;6.804;2024-03-02T12:06:54;99617.63;;;19.81;37.70
10712;BME280;5407;51.234;6.804;2024-03-02T12:09:22;99612.50;;;18.96;39.04
10712;BME280;5407;51.234;6.804;2024-03-02T12:12:03;99600.19;;;18.88;39.44
10712;BME280;5407;51.234;6.804;2024-03-02T12:14:30;99604.66;;;18.98;39.37
10712;BME280;5407;51.234;6.804;2024-03-02T12:16:57;99608.50;;;18.42;40.30
10712;BME280;5407;51.234;6.804;2024-03-02T12:19:25;99598.44;;;17.70;42.02
10712;BME280;5407;51.234;6.804;2024-03-02T12:21:52;99589.56;;;17.40;42.83
10712;BME280;5407;51.234;6.804;2024-03-02T12:24:21;99590.13;;;16.98;44.09
10712;BME280;5407;51.234;6.804;2024-03-02T12:26:49;99574.97;;;16.67;44.79
10712;BME280;5407;51.234;6.804;2024-03-02T12:29:18;99576.19;;;16.93;44.87
10712;BME280;5407;51.234;6.804;2024-03-02T12:31:47;99565.75;;;16.58;45.45
10712;BME280;5407;51.234;6.804;2024-03-02T12:34:15;99565.47;;;17.09;44.48
10712;BME280;5407;51.234;6.804;2024-03-02T12:36:44;99564.78;;;17.28;44.23
10712;BME280;5407;51.234;6.804;2024-03-02T12:39:13;99568.25;;;17.32;44.06
10712;BME280;5407;51.234;6.804;2024-03-02T12:41:41;99560.06;;;17.32;43.83
10712;BME280;5407;51.234;6.804;2024-03-02T12:44:07;99571.22;;;17.14;44.40
10712;BME280;5407;51.234;6.804;2024-03-02T12:46:36;99564.75;;;16.75;45.16
10712;BME280;5407;51.234;6.804;2024-03-02T12:49:08;99545.81;;;16.34;46.02
10712;BME280;5407;51.234;6.804;2024-03-02T12:51:36;99551.34;;;16.61;46.09
10712;BME280;5407;51.234;6.804;2024-03-02T12:54:03;99559.31;;;16.75;45.60
10712;BME280;5407;51.234;6.804;2024-03-02T12:56:31;99546.72;;;16.58;45.88
10712;BME280;5407;51.234;6.804;2024-03-02T12:58:59;99535.59;;;16.42;46.49
10712;BME280;5407;51.234;6.804;2024-03-02T13:01:26;99537.28;;;16.92;45.55
10712;BME280;5407;51.234;6.804;2024-03-02T13:03:54;99537.81;;;16.54;46.69
10712;BME280;5407;51.234;6.804;2024-03-02T13:06:22;99534.94;;;16.34;46.88
10712;BME280;5407;51.234;6.804;2024-03-02T13:08:49;99542.44;;;16.57;46.19
10712;BME280;5407;51.234;6.804;2024-03-02T13:11:17;99542.28;;;16.67;46.01
10712;BME280;5407;51.234;6.804;2024-03-02T13:13:44;99535.09;;;16.17;47.16
10712;BME280;5407;51.234;6.804;2024-03-02T13:16:11;99534.47;;;16.03;47.73
10712;BME280;5407;51.234;6.804;2024-03-02T13:18:39;99536.09;;;15.97;48.19
10712;BME280;5407;51.234;6.804;2024-03-02T13:21:08;99530.97;;;15.62;48.42
10712;BME280;5407;51.234;6.804;2024-03-02T13:23:35;99533.16;;;15.81;48.39